Time;durP1;ratioP1;P1;durP2;ratioP2;P2;SDS_P1;SDS_P2;PMS_P1;PMS_P2;Temp;Humidity;BMP_temperature;BMP_pressure;BME280_temperature;BME280_humidity;BME280_pressure;Samples;Min_cycle;Max_cycle;Signal;HPM_P1;HPM_P2
2022/05/15 00:01:01;;;;;;;15.57;14.07;;;;;;;;;;5080401;28;24405;-45
2022/05/15 00:03:26;;;;;;;16.10;14.40;;;;;;;;;;5083152;28;24781;-45
2022/05/15 00:05:53;;;;;;;15.33;13.63;;;;;;;;;;5082703;28;24426;-45
2022/05/15 00:08:19;;;;;;;17.58;15.88;;;;;;;;;;5083916;28;24500;-45
2022/05/15 00:10:44;;;;;;;15.70;14.00;;;;;;;;;;5086430;28;24480;-44
2022/05/15 00:13:10;;;;;;;16.10;14.60;;;;;;;;;;5082631;28;24426;-45
2022/05/15 00:15:36;;;;;;;17.43;15.73;;;;;;;;;;5082887;28;24438;-45
2022/05/15 00:18:02;;;;;;;17.33;15.77;;;;;;;;;;5082765;28;24915;-45
2022/05/15 00:20:27;;;;;;;18.92;17.20;;;;;;;;;;5083744;28;24513;-45
2022/05/15 00:22:52;;;;;;;19.08;17.17;;;;;;;;;;5082431;28;24517;-45
2022/05/15 00:25:17;;;;;;;19.20;17.30;;;;;;;;;;5083573;28;24418;-45
2022/05/15 00:27:42;;;;;;;18.67;16.73;;;;;;;;;;5083897;28;24978;-45
2022/05/15 00:30:08;;;;;;;17.63;15.83;;;;;;;;;;5082474;28;24477;-45
2022/05/15 00:32:33;;;;;;;17.70;16.13;;;;;;;;;;5082359;28;24797;-45
2022/05/15 00:34:58;;;;;;;18.00;16.40;;;;;;;;;;5081506;28;24414;-45
2022/05/15 00:37:23;;;;;;;17.98;16.17;;;;;;;;;;5082554;28;24425;-45
2022/05/15 00:39:49;;;;;;;17.90;16.03;;;;;;;;;;5084469;28;25519;-45
2022/05/15 00:42:14;;;;;;;18.57;16.77;;;;;;;;;;5084000;28;24407;-45
2022/05/15 00:44:39;;;;;;;17.95;16.20;;;;;;;;;;5082157;28;24827;-45
2022/05/15 00:47:05;;;;;;;17.67;16.07;;;;;;;;;;5083616;28;25062;-45
2022/05/15 00:49:30;;;;;;;19.03;17.23;;;;;;;;;;5085038;28;24426;-45
2022/05/15 00:51:57;;;;;;;19.02;17.13;;;;;;;;;;5080721;28;24468;-45
2022/05/15 00:54:32;;;;;;;18.30;16.60;;;;;;;;;;5082320;28;24426;-45
2022/05/15 00:57:01;;;;;;;18.02;16.23;;;;;;;;;;5085244;28;25199;-44
2022/05/15 00:59:27;;;;;;;18.70;16.75;;;;;;;;;;5082760;28;24426;-45
2022/05/15 01:01:52;;;;;;;17.85;16.15;;;;;;;;;;5084439;28;24429;-45
2022/05/15 01:04:17;;;;;;;17.77;16.07;;;;;;;;;;5081112;28;24840;-45
2022/05/15 01:06:43;;;;;;;18.90;17.10;;;;;;;;;;5084036;28;24967;-45
2022/05/15 01:09:08;;;;;;;18.40;16.60;;;;;;;;;;5082578;28;24410;-45
2022/05/15 01:11:34;;;;;;;17.17;15.57;;;;;;;;;;5078124;28;25175;-44
2022/05/15 01:14:05;;;;;;;16.57;14.97;;;;;;;;;;5082994;28;24781;-45
2022/05/15 01:16:30;;;;;;;17.00;15.13;;;;;;;;;;5078933;28;24493;-45
2022/05/15 01:18:56;;;;;;;16.57;15.17;;;;;;;;;;5084068;28;24894;-45
2022/05/15 01:21:26;;;;;;;16.90;15.30;;;;;;;;;;5076547;28;24739;-45
2022/05/15 01:23:52;;;;;;;16.10;14.60;;;;;;;;;;5078392;28;24517;-44
2022/05/15 01:26:17;;;;;;;15.83;14.33;;;;;;;;;;5076191;28;24478;-44
2022/05/15 01:28:45;;;;;;;17.23;15.63;;;;;;;;;;5078999;28;24839;-44
2022/05/15 01:31:10;;;;;;;15.60;14.10;;;;;;;;;;5074849;28;24453;-44
2022/05/15 01:33:35;;;;;;;15.32;13.98;;;;;;;;;;5081929;28;24422;-45
2022/05/15 01:36:01;;;;;;;15.68;14.27;;;;;;;;;;5077285;28;24452;-44
2022/05/15 01:38:26;;;;;;;16.95;15.20;;;;;;;;;;5081103;28;24785;-45
2022/05/15 01:40:51;;;;;;;15.70;14.30;;;;;;;;;;5087625;28;24513;-44
2022/05/15 01:43:16;;;;;;;16.20;14.70;;;;;;;;;;5086082;28;25193;-45
2022/05/15 01:45:42;;;;;;;14.82;13.50;;;;;;;;;;5079874;28;24426;-46
2022/05/15 01:48:07;;;;;;;15.10;13.60;;;;;;;;;;5087299;28;24464;-45
2022/05/15 01:50:32;;;;;;;14.40;13.00;;;;;;;;;;5087131;28;24453;-44
2022/05/15 01:52:59;;;;;;;15.27;13.77;;;;;;;;;;5084252;28;25011;-45
2022/05/15 01:55:24;;;;;;;13.57;12.27;;;;;;;;;;5082072;28;24472;-45
2022/05/15 01:57:49;;;;;;;14.37;13.17;;;;;;;;;;5084814;28;24503;-45
2022/05/15 02:00:16;;;;;;;14.20;12.90;;;;;;;;;;5080910;28;24426;-45
2022/05/15 02:02:41;;;;;;;13.85;12.55;;;;;;;;;;5087829;28;24529;-45
2022/05/15 02:05:07;;;;;;;13.73;12.50;;;;;;;;;;5084249;28;24539;-44
2022/05/15 02:07:32;;;;;;;14.02;12.73;;;;;;;;;;5084639;28;24470;-45
2022/05/15 02:09:58;;;;;;;13.50;12.20;;;;;;;;;;5084740;28;24510;-45
2022/05/15 02:12:23;;;;;;;13.87;12.50;;;;;;;;;;5083952;28;24869;-45
2022/05/15 02:14:48;;;;;;;13.95;12.80;;;;;;;;;;5085445;28;25219;-45
2022/05/15 02:17:13;;;;;;;13.30;10.90;;;;;;;;;;5083136;28;24480;-45
2022/05/15 02:19:38;;;;;;;13.33;12.03;;;;;;;;;;5081795;28;24515;-45
2022/05/15 02:22:04;;;;;;;12.82;11.63;;;;;;;;;;5081822;28;24501;-45
2022/05/15 02:24:29;;;;;;;13.27;12.17;;;;;;;;;;5083260;28;24450;-45
2022/05/15 02:26:54;;;;;;;14.90;13.60;;;;;;;;;;5084961;28;24573;-45
2022/05/15 02:29:19;;;;;;;13.70;12.40;;;;;;;;;;5083025;28;25206;-45
2022/05/15 02:31:44;;;;;;;13.38;12.07;;;;;;;;;;5066811;28;24465;-45
2022/05/15 02:34:09;;;;;;;13.90;12.60;;;;;;;;;;5079791;28;24475;-46
2022/05/15 02:36:34;;;;;;;12.60;11.43;;;;;;;;;;5082302;28;24446;-45
2022/05/15 02:39:00;;;;;;;13.35;12.07;;;;;;;;;;5076438;28;24774;-45
2022/05/15 02:41:26;;;;;;;12.85;11.68;;;;;;;;;;5087153;28;24410;-44
2022/05/15 02:43:51;;;;;;;12.43;11.30;;;;;;;;;;5080125;28;24478;-45
2022/05/15 02:46:16;;;;;;;11.60;10.60;;;;;;;;;;5085475;28;24823;-44
2022/05/15 02:51:25;;;;;;;13.23;11.90;;;;;;;;;;5081787;28;24475;-44
2022/05/15 02:53:50;;;;;;;12.50;11.30;;;;;;;;;;5086362;28;24826;-45
2022/05/15 02:56:17;;;;;;;12.13;11.03;;;;;;;;;;5084606;28;24988;-45
2022/05/15 02:58:43;;;;;;;12.60;11.48;;;;;;;;;;5084674;28;24422;-45
2022/05/15 03:01:08;;;;;;;11.82;10.73;;;;;;;;;;5082322;28;25071;-44
2022/05/15 03:03:34;;;;;;;11.80;10.70;;;;;;;;;;5085350;28;24471;-45
2022/05/15 03:05:59;;;;;;;11.70;10.60;;;;;;;;;;5086052;28;24956;-44
2022/05/15 03:08:24;;;;;;;12.73;10.90;;;;;;;;;;5081520;28;24426;-44
2022/05/15 03:10:50;;;;;;;11.77;10.73;;;;;;;;;;5085383;28;24797;-45
2022/05/15 03:13:15;;;;;;;11.63;10.63;;;;;;;;;;5084019;28;24422;-45
2022/05/15 03:15:40;;;;;;;11.53;10.53;;;;;;;;;;5085328;28;25100;-44
2022/05/15 03:18:05;;;;;;;11.23;10.23;;;;;;;;;;5085348;28;24449;-45
2022/05/15 03:20:31;;;;;;;11.77;10.68;;;;;;;;;;5083658;28;25416;-45
2022/05/15 03:22:56;;;;;;;11.70;10.70;;;;;;;;;;5085400;28;25056;-44
2022/05/15 03:25:22;;;;;;;11.13;10.10;;;;;;;;;;5085823;28;24445;-45
2022/05/15 03:27:47;;;;;;;11.73;10.60;;;;;;;;;;5083397;28;24509;-45
2022/05/15 03:30:13;;;;;;;12.30;11.10;;;;;;;;;;5082249;28;24469;-44
2022/05/15 03:32:38;;;;;;;11.10;10.00;;;;;;;;;;5081162;28;24473;-45
2022/05/15 03:35:05;;;;;;;11.68;10.68;;;;;;;;;;5082915;28;24433;-45
2022/05/15 03:37:31;;;;;;;11.57;10.48;;;;;;;;;;5082866;28;24796;-45
2022/05/15 03:39:56;;;;;;;11.35;10.20;;;;;;;;;;5085218;28;24765;-45
2022/05/15 03:42:22;;;;;;;11.77;10.67;;;;;;;;;;5084883;28;24535;-45
2022/05/15 03:44:47;;;;;;;12.48;10.40;;;;;;;;;;5085486;28;25021;-45
2022/05/15 03:47:12;;;;;;;11.32;10.32;;;;;;;;;;5084730;28;24430;-44
2022/05/15 03:49:37;;;;;;;12.35;11.18;;;;;;;;;;5078311;28;24781;-45
2022/05/15 03:52:03;;;;;;;11.40;10.30;;;;;;;;;;5081910;28;24507;-45
2022/05/15 03:54:28;;;;;;;11.43;10.10;;;;;;;;;;5080630;28;24429;-44
2022/05/15 03:56:53;;;;;;;11.10;10.00;;;;;;;;;;5083842;28;24994;-45
2022/05/15 03:59:23;;;;;;;10.75;9.85;;;;;;;;;;5083229;28;24421;-45
2022/05/15 04:01:49;;;;;;;10.90;9.90;;;;;;;;;;5085198;28;24480;-45
2022/05/15 04:04:14;;;;;;;11.00;9.80;;;;;;;;;;5082621;28;24417;-44
2022/05/15 04:06:39;;;;;;;10.03;9.13;;;;;;;;;;5083003;28;24445;-44
2022/05/15 04:09:04;;;;;;;9.90;9.10;;;;;;;;;;5083867;28;24823;-44
2022/05/15 04:11:29;;;;;;;9.32;8.50;;;;;;;;;;5084505;28;24457;-45
2022/05/15 04:13:55;;;;;;;10.60;9.50;;;;;;;;;;5084371;28;25291;-44
2022/05/15 04:16:20;;;;;;;9.50;8.70;;;;;;;;;;5082187;28;24820;-44
2022/05/15 04:18:45;;;;;;;10.27;9.20;;;;;;;;;;5084937;28;24417;-45
2022/05/15 04:21:10;;;;;;;9.50;8.50;;;;;;;;;;5080436;28;24442;-45
2022/05/15 04:23:36;;;;;;;9.10;7.90;;;;;;;;;;5082096;28;24521;-45
2022/05/15 04:26:01;;;;;;;8.73;7.93;;;;;;;;;;5084323;28;24784;-45
2022/05/15 04:28:26;;;;;;;8.90;8.20;;;;;;;;;;5083776;28;24431;-45
2022/05/15 04:30:51;;;;;;;9.00;8.10;;;;;;;;;;5079612;28;24437;-45
2022/05/15 04:33:17;;;;;;;9.00;8.20;;;;;;;;;;5083608;28;24419;-45
2022/05/15 04:35:42;;;;;;;8.52;7.72;;;;;;;;;;5084663;28;24841;-45
2022/05/15 04:38:07;;;;;;;8.30;7.60;;;;;;;;;;5083762;28;24483;-45
2022/05/15 04:40:32;;;;;;;9.30;8.30;;;;;;;;;;5083916;28;24484;-45
2022/05/15 04:42:58;;;;;;;9.25;8.43;;;;;;;;;;5085319;28;25160;-45
2022/05/15 04:45:23;;;;;;;8.60;7.80;;;;;;;;;;5082202;28;24519;-44
2022/05/15 04:47:48;;;;;;;9.65;8.30;;;;;;;;;;5076629;28;24445;-45
2022/05/15 04:50:14;;;;;;;8.52;7.70;;;;;;;;;;5080299;28;24513;-45
2022/05/15 04:52:39;;;;;;;8.20;7.40;;;;;;;;;;5082945;28;24842;-45
2022/05/15 04:55:04;;;;;;;8.13;7.43;;;;;;;;;;5081734;28;24894;-46
2022/05/15 04:57:30;;;;;;;8.20;7.40;;;;;;;;;;5076191;28;24541;-45
2022/05/15 04:59:55;;;;;;;8.17;7.17;;;;;;;;;;5065666;28;25025;-45
2022/05/15 05:02:20;;;;;;;8.00;7.20;;;;;;;;;;5078958;28;24482;-45
2022/05/15 05:04:45;;;;;;;7.82;7.13;;;;;;;;;;5074866;28;24488;-45
2022/05/15 05:07:10;;;;;;;7.40;6.70;;;;;;;;;;5080287;28;24848;-44
2022/05/15 05:09:35;;;;;;;7.28;6.57;;;;;;;;;;5084834;28;24509;-44
2022/05/15 05:12:00;;;;;;;7.17;6.57;;;;;;;;;;5081957;28;24491;-44
2022/05/15 05:14:26;;;;;;;7.50;6.70;;;;;;;;;;5087650;28;24422;-45
2022/05/15 05:16:51;;;;;;;7.50;6.80;;;;;;;;;;5084048;28;24524;-44
2022/05/15 05:19:16;;;;;;;7.45;6.75;;;;;;;;;;5086045;28;24418;-44
2022/05/15 05:21:41;;;;;;;7.20;6.20;;;;;;;;;;5084656;28;24899;-44
2022/05/15 05:24:06;;;;;;;7.17;6.47;;;;;;;;;;5084679;28;24427;-45
2022/05/15 05:26:31;;;;;;;6.90;6.20;;;;;;;;;;5086959;28;24422;-45
2022/05/15 05:28:57;;;;;;;6.63;6.03;;;;;;;;;;5087609;28;24430;-45
2022/05/15 05:31:22;;;;;;;6.90;6.20;;;;;;;;;;5083566;28;24442;-45
2022/05/15 05:33:47;;;;;;;7.03;6.33;;;;;;;;;;5081974;28;24516;-45
2022/05/15 05:36:12;;;;;;;7.00;6.00;;;;;;;;;;5078750;28;25081;-45
2022/05/15 05:38:37;;;;;;;6.10;5.60;;;;;;;;;;5083786;28;24522;-45
2022/05/15 05:41:02;;;;;;;6.00;5.50;;;;;;;;;;5081159;28;24419;-45
2022/05/15 05:43:28;;;;;;;6.63;5.90;;;;;;;;;;5080703;28;24513;-45
2022/05/15 05:45:54;;;;;;;7.90;7.20;;;;;;;;;;5083686;28;24450;-44
2022/05/15 05:48:19;;;;;;;7.05;6.15;;;;;;;;;;5081453;28;24418;-46
2022/05/15 05:50:44;;;;;;;6.50;5.70;;;;;;;;;;5083603;28;24449;-45
2022/05/15 05:53:10;;;;;;;5.75;5.35;;;;;;;;;;5073669;28;24421;-44
2022/05/15 05:55:35;;;;;;;6.15;5.70;;;;;;;;;;5081422;28;24456;-44
2022/05/15 05:58:00;;;;;;;6.07;5.57;;;;;;;;;;5083951;28;24433;-44
2022/05/15 06:00:30;;;;;;;6.60;6.00;;;;;;;;;;5083406;28;24506;-45
2022/05/15 06:04:39;;;;;;;7.28;6.57;;;;;;;;;;5082406;28;24421;-45
2022/05/15 06:05:41;;;;;;;6.70;6.10;;;;;;;;;;5082647;28;24956;-46
2022/05/15 06:08:06;;;;;;;6.90;6.20;;;;;;;;;;5083708;28;24437;-45
2022/05/15 06:10:31;;;;;;;6.93;6.33;;;;;;;;;;5082598;28;24450;-46
2022/05/15 06:12:56;;;;;;;7.50;6.90;;;;;;;;;;5082126;28;24430;-46
2022/05/15 06:15:21;;;;;;;7.85;6.53;;;;;;;;;;5078920;28;24437;-46
2022/05/15 06:17:47;;;;;;;7.95;6.80;;;;;;;;;;5087510;28;25033;-46
2022/05/15 06:20:12;;;;;;;8.90;7.13;;;;;;;;;;5087548;28;24473;-45
2022/05/15 06:22:37;;;;;;;6.83;6.23;;;;;;;;;;5085634;28;24422;-44
2022/05/15 06:25:02;;;;;;;8.10;7.30;;;;;;;;;;5086205;28;24861;-44
2022/05/15 06:27:27;;;;;;;8.10;6.70;;;;;;;;;;5086827;28;24414;-45
2022/05/15 06:29:57;;;;;;;8.73;7.20;;;;;;;;;;5084567;28;24442;-48
2022/05/15 06:32:22;;;;;;;7.20;6.55;;;;;;;;;;5056316;28;24838;-44
2022/05/15 06:34:48;;;;;;;8.02;6.80;;;;;;;;;;5066198;28;24513;-46
2022/05/15 06:37:13;;;;;;;8.23;7.30;;;;;;;;;;5066642;28;24992;-47
2022/05/15 06:39:38;;;;;;;8.98;7.57;;;;;;;;;;5069802;28;24475;-46
2022/05/15 06:42:04;;;;;;;8.37;7.00;;;;;;;;;;5067204;28;24484;-49
2022/05/15 06:44:29;;;;;;;8.48;6.50;;;;;;;;;;5066832;28;24789;-45
2022/05/15 06:46:55;;;;;;;7.00;6.30;;;;;;;;;;5066012;28;24453;-45
2022/05/15 06:49:32;;;;;;;7.43;6.73;;;;;;;;;;5062527;28;24972;-46
2022/05/15 06:51:57;;;;;;;9.30;7.22;;;;;;;;;;5062865;28;24505;-46
2022/05/15 06:54:22;;;;;;;8.40;6.93;;;;;;;;;;5062041;28;24965;-46
2022/05/15 06:59:32;;;;;;;7.40;6.65;;;;;;;;;;5056687;28;24446;-46
2022/05/15 07:01:58;;;;;;;8.13;5.95;;;;;;;;;;5065103;28;24894;-47
2022/05/15 07:04:23;;;;;;;7.70;6.50;;;;;;;;;;5068301;28;24510;-48
2022/05/15 07:06:48;;;;;;;8.50;6.50;;;;;;;;;;5060934;28;24418;-46
2022/05/15 07:09:14;;;;;;;9.40;6.85;;;;;;;;;;5064986;28;24426;-47
2022/05/15 07:11:42;;;;;;;9.17;6.57;;;;;;;;;;5065894;28;24537;-49
2022/05/15 07:14:08;;;;;;;7.72;6.72;;;;;;;;;;5063891;28;24431;-46
2022/05/15 07:16:33;;;;;;;6.95;6.22;;;;;;;;;;5063804;28;24478;-45
2022/05/15 07:18:58;;;;;;;7.00;5.10;;;;;;;;;;5062181;28;25255;-45
2022/05/15 07:21:24;;;;;;;7.68;5.70;;;;;;;;;;5077987;28;24473;-45
2022/05/15 07:23:49;;;;;;;6.13;5.53;;;;;;;;;;5058808;28;24484;-45
2022/05/15 07:26:14;;;;;;;6.88;5.70;;;;;;;;;;5064400;28;25032;-45
2022/05/15 07:28:39;;;;;;;8.05;5.15;;;;;;;;;;5062996;28;25033;-44
2022/05/15 07:31:04;;;;;;;8.13;5.30;;;;;;;;;;5067075;28;24541;-45
2022/05/15 07:33:29;;;;;;;7.68;5.53;;;;;;;;;;5080654;28;24425;-45
2022/05/15 07:35:57;;;;;;;7.15;5.60;;;;;;;;;;5082110;28;24460;-44
2022/05/15 07:38:23;;;;;;;8.93;5.80;;;;;;;;;;5080131;28;24488;-45
2022/05/15 07:40:48;;;;;;;7.30;5.17;;;;;;;;;;5080148;28;24446;-44
2022/05/15 07:43:14;;;;;;;7.30;5.10;;;;;;;;;;5080647;28;25303;-45
2022/05/15 07:45:39;;;;;;;5.55;4.95;;;;;;;;;;5086702;28;24390;-44
2022/05/15 07:48:04;;;;;;;6.27;4.70;;;;;;;;;;5087278;28;24992;-44
2022/05/15 07:50:30;;;;;;;6.60;5.68;;;;;;;;;;5085333;28;24394;-44
2022/05/15 07:52:55;;;;;;;7.57;4.67;;;;;;;;;;5087261;28;24407;-46
2022/05/15 07:55:20;;;;;;;6.63;5.30;;;;;;;;;;5085569;28;25076;-44
2022/05/15 07:57:45;;;;;;;9.32;5.90;;;;;;;;;;5086849;28;24846;-44
2022/05/15 08:00:13;;;;;;;6.63;5.00;;;;;;;;;;5084179;28;24789;-44
2022/05/15 08:02:38;;;;;;;6.72;4.90;;;;;;;;;;5084890;28;25196;-45
2022/05/15 08:08:01;;;;;;;7.28;4.50;;;;;;;;;;5085757;28;24401;-46
2022/05/15 08:10:27;;;;;;;7.53;4.40;;;;;;;;;;5082094;28;24426;-45
2022/05/15 08:12:52;;;;;;;6.00;3.90;;;;;;;;;;5085019;28;24441;-45
2022/05/15 08:15:17;;;;;;;5.30;3.90;;;;;;;;;;5082711;28;24968;-45
2022/05/15 08:17:42;;;;;;;5.95;3.45;;;;;;;;;;5082671;28;24995;-45
2022/05/15 08:25:39;;;;;;;5.05;3.25;;;;;;;;;;5081384;28;24413;-45
2022/05/15 08:28:04;;;;;;;6.50;4.10;;;;;;;;;;5086141;28;24402;-45
2022/05/15 08:30:29;;;;;;;6.07;3.40;;;;;;;;;;5079402;28;24446;-45
2022/05/15 08:32:54;;;;;;;6.53;4.07;;;;;;;;;;5084481;28;24576;-45
2022/05/15 08:35:20;;;;;;;6.90;3.40;;;;;;;;;;5080605;28;24462;-45
2022/05/15 08:37:45;;;;;;;4.73;3.70;;;;;;;;;;5071651;28;24422;-45
2022/05/15 08:40:10;;;;;;;5.50;3.47;;;;;;;;;;5082906;28;24968;-45
2022/05/15 08:42:48;;;;;;;6.25;4.00;;;;;;;;;;5083542;28;24987;-45
2022/05/15 08:45:14;;;;;;;7.00;3.87;;;;;;;;;;5080917;28;25059;-45
2022/05/15 08:47:42;;;;;;;7.25;4.40;;;;;;;;;;5086413;28;25048;-45
2022/05/15 08:50:09;;;;;;;8.00;4.40;;;;;;;;;;5087207;28;24964;-44
2022/05/15 08:52:53;;;;;;;6.28;4.50;;;;;;;;;;5085450;28;24971;-45
2022/05/15 08:55:19;;;;;;;7.38;4.40;;;;;;;;;;5080746;28;24537;-45
2022/05/15 08:57:50;;;;;;;7.80;4.40;;;;;;;;;;5074679;28;24505;-44
2022/05/15 09:00:19;;;;;;;7.00;4.13;;;;;;;;;;5087668;28;24430;-45
2022/05/15 09:02:44;;;;;;;6.82;4.40;;;;;;;;;;5089868;28;24422;-45
2022/05/15 09:05:10;;;;;;;5.03;3.60;;;;;;;;;;5083541;28;24429;-45
2022/05/15 09:08:01;;;;;;;6.10;3.80;;;;;;;;;;5087128;28;24418;-45
2022/05/15 09:10:30;;;;;;;7.65;4.22;;;;;;;;;;5074279;28;24435;-44
2022/05/15 09:13:18;;;;;;;4.95;3.40;;;;;;;;;;5089370;28;24998;-44
2022/05/15 09:15:49;;;;;;;5.30;3.80;;;;;;;;;;5075166;28;24983;-45
2022/05/15 09:18:16;;;;;;;5.35;3.10;;;;;;;;;;5086224;28;24991;-45
2022/05/15 09:20:47;;;;;;;5.75;3.40;;;;;;;;;;5088325;28;24486;-45
2022/05/15 09:23:15;;;;;;;5.20;2.90;;;;;;;;;;5086172;28;24841;-45
2022/05/15 09:25:41;;;;;;;5.35;3.53;;;;;;;;;;5082627;28;24491;-45
2022/05/15 09:28:06;;;;;;;7.60;4.00;;;;;;;;;;5086602;28;25019;-45
2022/05/15 09:30:33;;;;;;;6.93;3.83;;;;;;;;;;5088313;28;24438;-45
2022/05/15 09:32:58;;;;;;;7.40;4.13;;;;;;;;;;5086650;28;24455;-45
2022/05/15 09:35:29;;;;;;;7.80;3.80;;;;;;;;;;5077496;28;24466;-45
2022/05/15 09:43:30;;;;;;;7.32;3.70;;;;;;;;;;5082840;28;24445;-46
2022/05/15 09:43:31;;;;;;;6.15;3.40;;;;;;;;;;5088179;28;24402;-45
2022/05/15 09:45:58;;;;;;;6.10;3.42;;;;;;;;;;5083159;28;24484;-45
2022/05/15 09:48:24;;;;;;;5.00;3.10;;;;;;;;;;5088512;28;24434;-45
2022/05/15 09:50:52;;;;;;;5.93;3.97;;;;;;;;;;5069853;28;24456;-46
2022/05/15 09:53:20;;;;;;;4.70;3.60;;;;;;;;;;5083351;28;24422;-45
2022/05/15 09:56:01;;;;;;;4.80;3.30;;;;;;;;;;5067395;28;24797;-46
2022/05/15 09:58:34;;;;;;;5.68;3.70;;;;;;;;;;5083172;28;24425;-46
2022/05/15 10:01:10;;;;;;;4.68;3.30;;;;;;;;;;5088796;28;25018;-46
2022/05/15 10:03:35;;;;;;;4.70;3.28;;;;;;;;;;5078720;28;24426;-46
2022/05/15 10:06:06;;;;;;;5.13;3.20;;;;;;;;;;5082535;28;24498;-45
2022/05/15 10:08:32;;;;;;;5.93;3.40;;;;;;;;;;5083143;28;24430;-43
2022/05/15 10:10:59;;;;;;;6.80;3.88;;;;;;;;;;5084388;28;24414;-43
2022/05/15 10:13:44;;;;;;;6.88;4.55;;;;;;;;;;5086753;28;25032;-43
2022/05/15 10:16:36;;;;;;;5.93;4.10;;;;;;;;;;5085012;28;24504;-46
2022/05/15 10:19:09;;;;;;;5.78;3.70;;;;;;;;;;5083685;28;24491;-46
2022/05/15 10:21:42;;;;;;;8.18;3.72;;;;;;;;;;5085765;28;25055;-46
2022/05/15 10:24:42;;;;;;;5.65;3.70;;;;;;;;;;5077845;28;24424;-46
2022/05/15 10:27:10;;;;;;;4.13;3.25;;;;;;;;;;5005610;28;24421;-43
2022/05/15 10:29:42;;;;;;;5.63;3.30;;;;;;;;;;5072366;28;24417;-44
2022/05/15 10:32:11;;;;;;;5.68;3.30;;;;;;;;;;5087133;28;24477;-44
2022/05/15 10:34:36;;;;;;;5.40;2.88;;;;;;;;;;5084073;28;24430;-43
2022/05/15 10:37:08;;;;;;;5.27;3.30;;;;;;;;;;5084569;28;24434;-43
2022/05/15 10:39:52;;;;;;;4.95;3.10;;;;;;;;;;5084191;28;25224;-43
2022/05/15 10:42:29;;;;;;;5.28;3.33;;;;;;;;;;5072195;28;24445;-44
2022/05/15 10:45:04;;;;;;;6.32;3.65;;;;;;;;;;5081027;28;25003;-45
2022/05/15 10:47:47;;;;;;;5.65;3.50;;;;;;;;;;5084003;28;24449;-45
2022/05/15 10:50:25;;;;;;;5.65;3.38;;;;;;;;;;5086707;28;24421;-45
2022/05/15 10:52:56;;;;;;;5.20;3.60;;;;;;;;;;5083281;28;24423;-45
2022/05/15 10:58:38;;;;;;;5.60;3.20;;;;;;;;;;5078710;28;25073;-45
2022/05/15 11:01:09;;;;;;;4.60;3.45;;;;;;;;;;5085072;28;24636;-45
2022/05/15 11:03:34;;;;;;;6.72;3.38;;;;;;;;;;5082747;28;24441;-45
2022/05/15 11:06:21;;;;;;;4.78;3.20;;;;;;;;;;5083799;28;24442;-45
2022/05/15 11:08:48;;;;;;;4.50;3.07;;;;;;;;;;5071368;28;24454;-46
2022/05/15 11:11:32;;;;;;;4.10;2.80;;;;;;;;;;5082391;28;24448;-46
2022/05/15 11:14:01;;;;;;;7.00;2.95;;;;;;;;;;5080703;28;24563;-46
2022/05/15 11:16:45;;;;;;;4.30;2.90;;;;;;;;;;5084570;28;24434;-46
2022/05/15 11:19:11;;;;;;;4.72;2.90;;;;;;;;;;5080900;28;24468;-45
2022/05/15 11:21:36;;;;;;;4.43;3.00;;;;;;;;;;5080630;28;25075;-44
2022/05/15 11:24:07;;;;;;;4.15;2.90;;;;;;;;;;5086061;28;24887;-44
2022/05/15 11:26:37;;;;;;;4.93;3.00;;;;;;;;;;5084278;28;24662;-45
2022/05/15 11:29:05;;;;;;;4.47;3.00;;;;;;;;;;5084389;28;24466;-45
2022/05/15 11:31:45;;;;;;;4.57;3.10;;;;;;;;;;5081986;27;24594;-44
2022/05/15 11:34:11;;;;;;;4.70;3.30;;;;;;;;;;5051551;28;25304;-43
2022/05/15 11:36:38;;;;;;;5.70;3.30;;;;;;;;;;5060266;28;24434;-45
2022/05/15 11:39:03;;;;;;;4.43;2.90;;;;;;;;;;5058536;28;24465;-44
2022/05/15 11:41:29;;;;;;;4.90;3.10;;;;;;;;;;5062522;28;24427;-44
2022/05/15 11:43:56;;;;;;;3.47;2.70;;;;;;;;;;5060407;28;25039;-44
2022/05/15 11:46:21;;;;;;;5.30;3.10;;;;;;;;;;5056242;28;24993;-44
2022/05/15 11:48:50;;;;;;;5.20;3.17;;;;;;;;;;5047520;28;24467;-44
2022/05/15 11:51:16;;;;;;;5.78;3.40;;;;;;;;;;5051718;28;24964;-45
2022/05/15 11:54:11;;;;;;;4.90;3.50;;;;;;;;;;5050357;28;25047;-44
2022/05/15 11:56:56;;;;;;;6.28;3.28;;;;;;;;;;5056950;28;25047;-44
2022/05/15 11:59:27;;;;;;;4.32;3.20;;;;;;;;;;5056703;28;24566;-45
2022/05/15 12:02:11;;;;;;;4.53;3.00;;;;;;;;;;5049923;28;24657;-44
2022/05/15 12:04:36;;;;;;;6.35;3.38;;;;;;;;;;5062469;28;24929;-45
2022/05/15 12:07:01;;;;;;;5.00;2.88;;;;;;;;;;5070162;28;25029;-44
2022/05/15 12:09:43;;;;;;;5.60;2.70;;;;;;;;;;5077896;28;25156;-44
2022/05/15 12:12:21;;;;;;;3.85;2.67;;;;;;;;;;5067564;28;24465;-45
2022/05/15 12:15:03;;;;;;;5.20;2.90;;;;;;;;;;5073918;28;24455;-44
2022/05/15 12:17:29;;;;;;;2.70;2.30;;;;;;;;;;5080375;28;24395;-44
2022/05/15 12:20:05;;;;;;;4.93;2.83;;;;;;;;;;5059933;28;24490;-44
2022/05/15 12:22:36;;;;;;;5.30;2.80;;;;;;;;;;5056620;28;24431;-44
2022/05/15 12:25:08;;;;;;;4.82;3.42;;;;;;;;;;5058176;28;24402;-45
2022/05/15 12:27:35;;;;;;;5.10;3.28;;;;;;;;;;5046492;28;24829;-44
2022/05/15 12:30:00;;;;;;;4.15;3.20;;;;;;;;;;5050936;28;24533;-44
2022/05/15 12:32:28;;;;;;;4.00;3.05;;;;;;;;;;5068672;28;24514;-45
2022/05/15 12:34:54;;;;;;;5.43;3.17;;;;;;;;;;5083807;28;24846;-44
2022/05/15 12:37:21;;;;;;;6.18;3.20;;;;;;;;;;5074502;28;24450;-44
2022/05/15 12:39:48;;;;;;;8.63;3.60;;;;;;;;;;5065458;28;24438;-43
2022/05/15 12:42:21;;;;;;;5.07;3.10;;;;;;;;;;5052065;28;24824;-45
2022/05/15 12:44:46;;;;;;;5.20;2.80;;;;;;;;;;5047576;28;24402;-43
2022/05/15 12:47:20;;;;;;;4.00;2.80;;;;;;;;;;5048300;28;24436;-44
2022/05/15 12:49:46;;;;;;;3.28;2.90;;;;;;;;;;5047185;28;24852;-44
2022/05/15 12:52:15;;;;;;;3.13;2.60;;;;;;;;;;5048366;28;25021;-44
2022/05/15 12:54:42;;;;;;;3.50;3.00;;;;;;;;;;5085513;28;24442;-43
2022/05/15 12:57:10;;;;;;;5.50;3.00;;;;;;;;;;5079345;28;24508;-44
2022/05/15 12:59:38;;;;;;;6.43;3.30;;;;;;;;;;5047862;28;24438;-44
2022/05/15 13:02:14;;;;;;;7.30;3.65;;;;;;;;;;5058124;28;24821;-44
2022/05/15 13:04:43;;;;;;;4.45;3.50;;;;;;;;;;5065672;28;24438;-43
2022/05/15 13:07:09;;;;;;;3.60;2.87;;;;;;;;;;5062118;28;24427;-44
2022/05/15 13:09:34;;;;;;;3.53;3.23;;;;;;;;;;5047083;28;24399;-44
2022/05/15 13:12:01;;;;;;;3.90;3.50;;;;;;;;;;5048129;28;24417;-44
2022/05/15 13:14:37;;;;;;;4.72;3.40;;;;;;;;;;5054732;28;24538;-44
2022/05/15 13:17:04;;;;;;;4.90;3.17;;;;;;;;;;5061211;28;24427;-44
2022/05/15 13:19:45;;;;;;;4.55;3.17;;;;;;;;;;5046509;28;24394;-44
2022/05/15 13:22:13;;;;;;;5.68;3.53;;;;;;;;;;5047418;28;24415;-44
2022/05/15 13:24:38;;;;;;;4.93;3.20;;;;;;;;;;5054652;28;24430;-44
2022/05/15 13:27:04;;;;;;;3.97;3.20;;;;;;;;;;5059817;28;24415;-44
2022/05/15 13:29:31;;;;;;;4.13;2.83;;;;;;;;;;5046230;28;24387;-44
2022/05/15 13:31:57;;;;;;;4.22;3.30;;;;;;;;;;5047857;28;24573;-44
2022/05/15 13:34:26;;;;;;;4.32;2.72;;;;;;;;;;5045759;28;24399;-44
2022/05/15 13:36:53;;;;;;;4.07;2.80;;;;;;;;;;5060080;28;24501;-44
2022/05/15 13:44:51;;;;;;;3.30;2.50;;;;;;;;;;5046583;28;24444;-45
2022/05/15 13:47:20;;;;;;;3.25;2.60;;;;;;;;;;5055701;28;24427;-44
2022/05/15 13:49:46;;;;;;;3.53;2.22;;;;;;;;;;5045817;28;24411;-43
2022/05/15 13:52:39;;;;;;;3.50;2.80;;;;;;;;;;5046525;28;24403;-47
2022/05/15 13:55:07;;;;;;;5.13;2.70;;;;;;;;;;5044318;28;24546;-43
2022/05/15 13:57:33;;;;;;;3.75;2.92;;;;;;;;;;5075947;28;24406;-44
2022/05/15 14:00:00;;;;;;;5.43;2.80;;;;;;;;;;5078662;28;24394;-44
2022/05/15 14:02:27;;;;;;;3.15;2.58;;;;;;;;;;5049282;28;24426;-45
2022/05/15 14:04:58;;;;;;;4.23;2.50;;;;;;;;;;5047589;28;24565;-44
2022/05/15 14:07:27;;;;;;;3.78;2.60;;;;;;;;;;5066020;28;24434;-45
2022/05/15 14:09:55;;;;;;;2.50;2.28;;;;;;;;;;5071042;28;24469;-44
2022/05/15 14:12:37;;;;;;;3.90;3.05;;;;;;;;;;5056442;28;24415;-44
2022/05/15 14:15:05;;;;;;;4.40;2.40;;;;;;;;;;5075317;28;25006;-44
2022/05/15 14:17:46;;;;;;;3.88;2.65;;;;;;;;;;5054093;28;24425;-44
2022/05/15 14:20:11;;;;;;;4.15;2.50;;;;;;;;;;5067007;28;24967;-44
2022/05/15 14:22:37;;;;;;;4.43;2.67;;;;;;;;;;5044682;28;24423;-44
2022/05/15 14:25:04;;;;;;;3.95;2.60;;;;;;;;;;5046927;28;24410;-45
2022/05/15 14:27:29;;;;;;;3.40;2.30;;;;;;;;;;5048750;28;24426;-45
2022/05/15 14:29:54;;;;;;;3.53;2.40;;;;;;;;;;5067108;28;24944;-44
2022/05/15 14:32:24;;;;;;;4.93;2.60;;;;;;;;;;5045692;28;24485;-44
2022/05/15 14:34:49;;;;;;;2.88;1.92;;;;;;;;;;5046809;28;24423;-44
2022/05/15 14:37:15;;;;;;;2.70;2.03;;;;;;;;;;5045767;28;24984;-45
2022/05/15 14:39:40;;;;;;;3.10;2.30;;;;;;;;;;5064035;28;24454;-44
2022/05/15 14:42:06;;;;;;;3.42;2.47;;;;;;;;;;5048716;28;24422;-45
2022/05/15 14:44:31;;;;;;;2.97;2.27;;;;;;;;;;5045762;28;24393;-44
2022/05/15 14:46:56;;;;;;;3.42;2.20;;;;;;;;;;5046365;28;24427;-45
2022/05/15 14:49:23;;;;;;;4.37;2.50;;;;;;;;;;5059905;28;24426;-45
2022/05/15 14:51:48;;;;;;;2.80;2.50;;;;;;;;;;5087519;28;24382;-44
2022/05/15 14:54:16;;;;;;;2.92;2.20;;;;;;;;;;5086552;28;24472;-45
2022/05/15 14:56:41;;;;;;;4.13;2.38;;;;;;;;;;5060731;28;24419;-45
2022/05/15 14:59:14;;;;;;;5.18;2.30;;;;;;;;;;5069287;28;24889;-45
2022/05/15 15:01:39;;;;;;;3.25;2.45;;;;;;;;;;5083579;28;25009;-46
2022/05/15 15:04:05;;;;;;;3.30;2.40;;;;;;;;;;5074524;28;24463;-44